Accueil
METAR-TAF:

METAR-TAF

Aéroports :

Fritzlar, Allemagne

latitude: 51-07N, longitude: 009-17E, altitude: 172 m

Observation

Le bulletin a été fait il y a 23 minutes, à 01:29 UTC
Vent 6 kt de est
Température 8°C
Humidité 100%
Pression 1022 hPa
Visibilité: 1500 m
bancs de brouillard

METAR: ETHF 170129Z 10006KT 1500 BCFG 08/08 Q1022 AMB

Heure: 03:52 (01:52 UTC)

Prévision

Le bulletin a été fait il y a 11 heures et 18 minutes, à 14:34 UTC
Prévision valable du 16 à 14 UTC au 16 à 23 UTC
Vent 7 kt de sud
Visibilité: 1500 m
Quelques nuages à une hauteur de 12000 ft

TAF: ETHF 161434Z 1614/1623 19007KT 9999 NSW FEW120 CANCEL 1500

Observations et prévisions météorologiques de plus de 4000 aéroports (messages METAR et TAF).

Les stations disponibles sont représentées par des disques jaunes et rouges sur la carte.

Passer la souris dessus pour voir le nom de la station.

Cliquer dessus pour voir les observations et prévisions météorologiques.

Pour changer de carte: cliquez sur les boutons verts avec une croix noire pour zoomer, sur le bouton vert avec un tiret pour effectuer un zoom arrière, ou sur les flèches vertes pour les cartes adjacentes.


METAR-TAF: